createdAt,value
2023-12-10T00:01:23.795Z,59.38
2023-12-10T00:03:50.358Z,58.87
2023-12-10T00:06:16.845Z,58.64
2023-12-10T00:08:43.228Z,57.61
2023-12-10T00:11:09.558Z,58.70
2023-12-10T00:13:35.917Z,57.74
2023-12-10T00:16:02.247Z,57.92
2023-12-10T00:18:28.734Z,59.25
2023-12-10T00:20:55.428Z,59.57
2023-12-10T00:23:21.736Z,59.55
2023-12-10T00:25:48.082Z,58.95
2023-12-10T00:28:14.436Z,57.86
2023-12-10T00:30:40.752Z,57.99
2023-12-10T00:33:07.207Z,58.85
2023-12-10T00:35:33.681Z,58.31
2023-12-10T00:37:59.995Z,57.91
2023-12-10T00:40:26.319Z,58.17
2023-12-10T00:42:52.700Z,58.28
2023-12-10T00:45:19.114Z,58.54
2023-12-10T00:47:45.537Z,58.47
2023-12-10T00:50:11.956Z,57.63
2023-12-10T00:52:38.287Z,58.00
2023-12-10T00:55:04.623Z,59.04
2023-12-10T00:57:31.129Z,58.33
2023-12-10T00:59:57.490Z,58.80
2023-12-10T01:02:23.919Z,58.65
2023-12-10T01:04:50.392Z,59.22
2023-12-10T01:07:16.743Z,58.77
2023-12-10T01:09:43.054Z,58.94
2023-12-10T01:12:09.527Z,57.97
2023-12-10T01:14:35.934Z,59.55
2023-12-10T01:17:02.240Z,58.76
2023-12-10T01:19:28.694Z,57.95
2023-12-10T01:21:55.083Z,58.69
2023-12-10T01:24:21.405Z,57.49
2023-12-10T01:26:47.749Z,58.00
2023-12-10T01:29:14.062Z,57.95
2023-12-10T01:31:40.364Z,58.09
2023-12-10T01:34:06.939Z,57.64
2023-12-10T01:36:33.346Z,57.32
2023-12-10T01:38:59.653Z,58.20
2023-12-10T01:41:26.106Z,58.30
2023-12-10T01:43:52.413Z,57.37
2023-12-10T01:46:18.741Z,57.54
2023-12-10T01:48:45.142Z,57.50
2023-12-10T01:51:11.528Z,57.39
2023-12-10T01:53:37.851Z,56.90
2023-12-10T01:56:04.279Z,57.18
2023-12-10T01:58:30.594Z,56.85
2023-12-10T02:00:56.991Z,56.83
2023-12-10T02:03:23.549Z,57.24
2023-12-10T02:05:49.980Z,58.09
2023-12-10T02:08:16.337Z,59.05
2023-12-10T02:10:42.754Z,59.53
2023-12-10T02:13:09.061Z,59.86
2023-12-10T02:15:35.415Z,59.24
2023-12-10T02:18:01.839Z,59.10
2023-12-10T02:20:28.163Z,60.17
2023-12-10T02:22:54.461Z,60.03
2023-12-10T02:25:20.848Z,60.48
2023-12-10T02:27:47.211Z,60.24
2023-12-10T02:30:13.538Z,60.51
2023-12-10T02:32:39.947Z,61.08
2023-12-10T02:35:06.265Z,60.67
2023-12-10T02:37:32.573Z,61.00
2023-12-10T02:39:58.897Z,60.71
2023-12-10T02:42:25.239Z,60.02
2023-12-10T02:44:51.600Z,59.41
2023-12-10T02:47:17.941Z,60.36
2023-12-10T02:49:44.323Z,60.28
2023-12-10T02:52:10.747Z,60.22
2023-12-10T02:54:37.190Z,59.62
2023-12-10T02:57:03.505Z,59.02
2023-12-10T02:59:29.824Z,59.62
2023-12-10T03:01:56.316Z,59.23
2023-12-10T03:04:22.640Z,59.94
2023-12-10T03:06:49.008Z,59.12
2023-12-10T03:09:15.396Z,59.08
2023-12-10T03:11:41.710Z,59.36
2023-12-10T03:14:09.366Z,59.01
2023-12-10T03:16:36.928Z,59.88
2023-12-10T03:19:03.371Z,59.49
2023-12-10T03:21:29.764Z,59.22
2023-12-10T03:23:56.234Z,59.84
2023-12-10T03:26:22.545Z,59.76
2023-12-10T03:28:48.946Z,60.22
2023-12-10T03:31:15.321Z,59.98
2023-12-10T03:33:41.766Z,60.63
2023-12-10T03:36:08.205Z,60.11
2023-12-10T03:38:34.575Z,60.22
2023-12-10T03:41:00.891Z,60.44
2023-12-10T03:43:27.200Z,59.73
2023-12-10T03:45:53.632Z,61.07
2023-12-10T03:48:20.120Z,60.36
2023-12-10T03:50:46.505Z,59.96
2023-12-10T03:53:12.922Z,60.58
2023-12-10T03:55:39.241Z,60.48
2023-12-10T03:58:05.565Z,61.25
2023-12-10T04:00:32.008Z,61.36
2023-12-10T04:02:58.386Z,61.33
2023-12-10T04:05:24.770Z,61.35
2023-12-10T04:07:51.191Z,61.08
2023-12-10T04:10:17.492Z,62.11
2023-12-10T04:12:43.889Z,61.10
2023-12-10T04:15:10.224Z,61.08
2023-12-10T04:17:36.658Z,61.14
2023-12-10T04:20:03.147Z,61.38
2023-12-10T04:22:29.855Z,61.00
2023-12-10T04:24:56.423Z,61.50
2023-12-10T04:27:22.815Z,61.23
2023-12-10T04:29:49.374Z,60.74
2023-12-10T04:32:15.680Z,60.91
2023-12-10T04:34:42.105Z,60.48
2023-12-10T04:37:08.617Z,60.56
2023-12-10T04:39:34.948Z,60.37
2023-12-10T04:42:01.313Z,59.98
2023-12-10T04:44:27.748Z,59.98
2023-12-10T04:46:54.060Z,59.81
2023-12-10T04:49:20.611Z,59.60
2023-12-10T04:51:47.227Z,59.93
2023-12-10T04:54:13.591Z,60.36
2023-12-10T04:56:39.943Z,60.08
2023-12-10T04:59:06.300Z,60.11
2023-12-10T05:01:32.656Z,60.01
2023-12-10T05:03:59.078Z,59.86
2023-12-10T05:06:25.697Z,59.51
2023-12-10T05:08:52.030Z,59.71
2023-12-10T05:11:18.343Z,59.75
2023-12-10T05:13:44.879Z,60.25
2023-12-10T05:16:11.186Z,60.13
2023-12-10T05:18:37.714Z,59.69
2023-12-10T05:21:04.122Z,59.89
2023-12-10T05:23:30.418Z,59.84
2023-12-10T05:25:56.745Z,60.00
2023-12-10T05:28:23.096Z,59.98
2023-12-10T05:30:49.468Z,60.54
2023-12-10T05:33:15.961Z,60.70
2023-12-10T05:35:42.465Z,60.42
2023-12-10T05:38:08.776Z,60.43
2023-12-10T05:40:35.085Z,60.95
2023-12-10T05:43:01.493Z,61.60
2023-12-10T05:45:27.831Z,61.44
2023-12-10T05:47:54.301Z,61.54
2023-12-10T05:50:21.181Z,61.23
2023-12-10T05:52:47.484Z,61.18
2023-12-10T05:55:13.791Z,61.41
2023-12-10T05:57:40.208Z,61.37
2023-12-10T06:00:06.544Z,61.42
2023-12-10T06:02:32.872Z,61.39
2023-12-10T06:04:59.224Z,61.19
2023-12-10T06:07:25.560Z,61.83
2023-12-10T06:09:51.967Z,61.45
2023-12-10T06:12:18.421Z,61.81
2023-12-10T06:14:44.763Z,61.33
2023-12-10T06:17:11.164Z,61.53
2023-12-10T06:19:37.770Z,61.40
2023-12-10T06:22:04.227Z,61.30
2023-12-10T06:24:30.664Z,61.70
2023-12-10T06:26:57.045Z,61.08
2023-12-10T06:29:23.358Z,60.90
2023-12-10T06:31:49.774Z,60.95
2023-12-10T06:34:16.288Z,61.15
2023-12-10T06:36:42.748Z,60.57
2023-12-10T06:39:09.102Z,60.74
2023-12-10T06:41:35.729Z,60.68
2023-12-10T06:44:02.092Z,60.78
2023-12-10T06:46:28.434Z,60.45
2023-12-10T06:48:54.865Z,60.51
2023-12-10T06:51:21.282Z,60.50
2023-12-10T06:53:47.615Z,60.35
2023-12-10T06:56:14.115Z,59.85
2023-12-10T06:58:40.433Z,60.12
2023-12-10T07:01:06.865Z,60.16
2023-12-10T07:03:33.681Z,59.78
2023-12-10T07:06:00.376Z,59.40
2023-12-10T07:08:26.932Z,59.25
2023-12-10T07:10:53.362Z,58.70
2023-12-10T07:13:19.674Z,58.73
2023-12-10T07:15:46.021Z,58.75
2023-12-10T07:18:12.486Z,59.37
2023-12-10T07:20:38.832Z,58.93
2023-12-10T07:23:05.141Z,58.91
2023-12-10T07:25:33.181Z,58.07
2023-12-10T07:27:59.586Z,58.46
2023-12-10T07:30:25.969Z,58.39
2023-12-10T07:32:52.384Z,58.15
2023-12-10T07:35:18.699Z,57.86
2023-12-10T07:37:45.070Z,58.13
2023-12-10T07:40:11.437Z,57.71
2023-12-10T07:42:37.796Z,57.64
2023-12-10T07:45:04.143Z,57.47
2023-12-10T07:47:30.517Z,57.29
2023-12-10T07:49:56.900Z,57.24
2023-12-10T07:52:23.426Z,57.02
2023-12-10T07:54:49.783Z,56.84
2023-12-10T07:57:16.143Z,56.83
2023-12-10T07:59:42.488Z,56.54
2023-12-10T08:02:08.826Z,56.44
2023-12-10T08:04:35.156Z,56.51
2023-12-10T08:07:01.502Z,56.38
2023-12-10T08:09:27.831Z,56.72
2023-12-10T08:11:54.148Z,56.13
2023-12-10T08:14:20.480Z,56.81
2023-12-10T08:16:46.926Z,55.83
2023-12-10T08:19:13.351Z,56.12
2023-12-10T08:21:39.791Z,56.52
2023-12-10T08:24:06.155Z,55.68
2023-12-10T08:26:32.464Z,55.54
2023-12-10T08:28:59.263Z,56.29
2023-12-10T08:31:25.585Z,56.14
2023-12-10T08:33:52.063Z,56.79
2023-12-10T08:36:18.517Z,56.80
2023-12-10T08:38:44.890Z,57.12
2023-12-10T08:41:11.259Z,56.99
2023-12-10T08:43:37.608Z,56.40
2023-12-10T08:46:03.985Z,56.43
2023-12-10T08:48:30.643Z,55.95
2023-12-10T08:50:57.039Z,55.68
2023-12-10T08:53:23.398Z,55.40
2023-12-10T08:55:49.822Z,55.75
2023-12-10T08:58:16.171Z,56.22
2023-12-10T09:00:42.615Z,55.45
2023-12-10T09:03:08.997Z,55.56
2023-12-10T09:05:35.416Z,54.83
2023-12-10T09:08:01.840Z,54.92
2023-12-10T09:10:28.190Z,55.20
2023-12-10T09:12:54.682Z,55.25
2023-12-10T09:15:21.090Z,54.71
2023-12-10T09:17:47.511Z,55.73
2023-12-10T09:20:14.000Z,54.68
2023-12-10T09:22:40.367Z,53.45
2023-12-10T09:25:06.681Z,53.17
2023-12-10T09:27:33.066Z,52.99
2023-12-10T09:29:59.462Z,52.41
2023-12-10T09:32:25.813Z,51.99
2023-12-10T09:34:52.278Z,51.54
2023-12-10T09:37:18.694Z,51.64
2023-12-10T09:39:45.057Z,51.32
2023-12-10T09:42:11.435Z,51.68
2023-12-10T09:44:37.762Z,51.44
2023-12-10T09:47:04.092Z,51.41
2023-12-10T09:49:30.477Z,50.57
2023-12-10T09:51:56.872Z,50.24
2023-12-10T09:54:23.209Z,49.83
2023-12-10T09:56:49.559Z,49.99
2023-12-10T09:59:15.977Z,50.46
2023-12-10T10:01:42.348Z,50.83
2023-12-10T10:04:08.836Z,51.82
2023-12-10T10:06:35.863Z,51.89
2023-12-10T10:09:02.921Z,51.18
2023-12-10T10:11:29.245Z,51.16
2023-12-10T10:13:55.569Z,50.27
2023-12-10T10:16:22.038Z,50.51
2023-12-10T10:18:48.494Z,49.87
2023-12-10T10:21:14.882Z,49.52
2023-12-10T10:23:41.252Z,49.35
2023-12-10T10:26:07.586Z,49.84
2023-12-10T10:28:34.290Z,50.39
2023-12-10T10:31:00.618Z,51.25
2023-12-10T10:33:27.087Z,50.23
2023-12-10T10:35:53.556Z,50.06
2023-12-10T10:38:19.913Z,49.98
2023-12-10T10:40:46.466Z,49.38
2023-12-10T10:43:12.840Z,49.46
2023-12-10T10:45:39.652Z,48.64
2023-12-10T10:48:06.123Z,48.51
2023-12-10T10:50:32.516Z,47.33
2023-12-10T10:52:58.894Z,46.31
2023-12-10T10:55:25.206Z,44.68
2023-12-10T10:57:51.604Z,43.18
2023-12-10T11:00:18.103Z,43.05
2023-12-10T11:02:44.564Z,42.56
2023-12-10T11:05:10.925Z,40.87
2023-12-10T11:07:37.321Z,40.33
2023-12-10T11:10:03.724Z,39.04
2023-12-10T11:12:30.071Z,39.11
2023-12-10T11:14:56.401Z,38.23
2023-12-10T11:17:22.726Z,37.72
2023-12-10T11:19:49.226Z,36.90
2023-12-10T11:22:15.573Z,37.20
2023-12-10T11:24:41.913Z,38.01
2023-12-10T11:27:08.376Z,37.54
2023-12-10T11:29:34.703Z,36.88
2023-12-10T11:32:01.049Z,38.28
2023-12-10T11:34:27.448Z,37.83
2023-12-10T11:36:53.980Z,37.07
2023-12-10T11:39:20.352Z,37.19
2023-12-10T11:41:56.246Z,36.29
2023-12-10T11:44:29.361Z,37.10
2023-12-10T11:46:58.121Z,37.07
2023-12-10T11:49:25.010Z,38.46
2023-12-10T11:51:51.475Z,38.19
2023-12-10T11:54:17.888Z,38.32
2023-12-10T11:56:44.247Z,37.53
2023-12-10T11:59:12.629Z,38.47
2023-12-10T12:01:39.571Z,38.77
2023-12-10T12:04:06.052Z,39.23
2023-12-10T12:06:32.592Z,38.88
2023-12-10T12:08:58.935Z,39.14
2023-12-10T12:11:25.258Z,39.21
2023-12-10T12:13:51.592Z,39.43
2023-12-10T12:16:18.188Z,38.62
2023-12-10T12:18:44.720Z,38.13
2023-12-10T12:21:11.086Z,38.08
2023-12-10T12:23:37.395Z,38.51
2023-12-10T12:26:03.715Z,37.94
2023-12-10T12:28:30.014Z,36.69
2023-12-10T12:30:56.369Z,37.28
2023-12-10T12:33:22.844Z,37.88
2023-12-10T12:35:49.311Z,37.76
2023-12-10T12:38:15.627Z,37.82
2023-12-10T12:40:41.949Z,37.76
2023-12-10T12:43:08.364Z,37.59
2023-12-10T12:45:34.776Z,37.38
2023-12-10T12:48:01.338Z,37.92
2023-12-10T12:50:27.694Z,37.96
2023-12-10T12:52:54.371Z,38.22
2023-12-10T12:55:20.795Z,37.17
2023-12-10T12:57:47.153Z,37.22
2023-12-10T13:00:13.601Z,35.92
2023-12-10T13:02:39.924Z,37.04
2023-12-10T13:05:06.320Z,36.69
2023-12-10T13:07:32.805Z,36.61
2023-12-10T13:10:01.846Z,35.51
2023-12-10T13:12:29.750Z,35.96
2023-12-10T13:14:56.086Z,35.76
2023-12-10T13:17:22.436Z,35.58
2023-12-10T13:19:48.805Z,35.97
2023-12-10T13:22:15.218Z,36.26
2023-12-10T13:24:41.590Z,36.45
2023-12-10T13:27:07.936Z,35.79
2023-12-10T13:29:34.414Z,37.06
2023-12-10T13:32:00.732Z,37.60
2023-12-10T13:34:27.123Z,37.65
2023-12-10T13:36:53.515Z,38.05
2023-12-10T13:39:19.985Z,37.84
2023-12-10T13:41:46.532Z,38.56
2023-12-10T13:44:13.756Z,38.98
2023-12-10T13:46:41.424Z,39.62
2023-12-10T13:49:07.766Z,39.67
2023-12-10T13:51:34.196Z,40.43
2023-12-10T13:54:00.646Z,40.14
2023-12-10T13:56:26.956Z,39.97
2023-12-10T13:58:53.272Z,41.19
2023-12-10T14:01:19.699Z,41.46
2023-12-10T14:03:46.172Z,42.74
2023-12-10T14:06:12.866Z,43.28
2023-12-10T14:08:39.207Z,44.12
2023-12-10T14:11:05.518Z,44.73
2023-12-10T14:13:31.856Z,44.70
2023-12-10T14:15:58.176Z,43.71
2023-12-10T14:18:24.613Z,44.44
2023-12-10T14:20:51.080Z,43.91
2023-12-10T14:23:17.566Z,43.44
2023-12-10T14:25:45.020Z,42.79
2023-12-10T14:28:11.779Z,42.03
2023-12-10T14:30:38.179Z,43.01
2023-12-10T14:33:04.644Z,42.30
2023-12-10T14:35:31.185Z,43.36
2023-12-10T14:37:57.523Z,43.22
2023-12-10T14:40:23.846Z,43.59
2023-12-10T14:42:50.228Z,44.06
2023-12-10T14:45:16.775Z,43.54
2023-12-10T14:47:43.444Z,44.99
2023-12-10T14:50:09.865Z,45.22
2023-12-10T14:52:36.202Z,45.22
2023-12-10T14:55:02.563Z,45.33
2023-12-10T14:57:29.143Z,45.76
2023-12-10T14:59:55.692Z,45.20
2023-12-10T15:02:22.094Z,45.61
2023-12-10T15:04:48.427Z,45.89
2023-12-10T15:07:14.841Z,45.10
2023-12-10T15:09:41.216Z,45.35
2023-12-10T15:12:07.564Z,45.80
2023-12-10T15:14:33.869Z,45.71
2023-12-10T15:17:00.227Z,45.97
2023-12-10T15:19:26.608Z,46.41
2023-12-10T15:21:52.995Z,47.09
2023-12-10T15:24:19.413Z,46.77
2023-12-10T15:26:45.752Z,47.13
2023-12-10T15:29:12.071Z,46.89
2023-12-10T15:31:38.390Z,47.51
2023-12-10T15:34:04.826Z,47.50
2023-12-10T15:36:31.290Z,48.10
2023-12-10T15:38:57.632Z,47.95
2023-12-10T15:41:24.036Z,48.81
2023-12-10T15:43:50.361Z,50.05
2023-12-10T15:46:16.692Z,51.18
2023-12-10T15:48:43.258Z,50.97
2023-12-10T15:51:09.707Z,51.25
2023-12-10T15:53:36.185Z,51.41
2023-12-10T15:56:02.523Z,50.92
2023-12-10T15:58:28.863Z,50.41
2023-12-10T16:00:55.385Z,52.38
2023-12-10T16:03:21.845Z,51.35
2023-12-10T16:05:48.368Z,50.98
2023-12-10T16:08:14.766Z,50.60
2023-12-10T16:10:41.106Z,49.44
2023-12-10T16:13:07.472Z,50.76
2023-12-10T16:15:34.050Z,49.74
2023-12-10T16:18:00.493Z,49.53
2023-12-10T16:20:26.868Z,48.29
2023-12-10T16:22:53.219Z,48.51
2023-12-10T16:25:19.905Z,48.67
2023-12-10T16:27:46.383Z,48.27
2023-12-10T16:30:12.856Z,48.58
2023-12-10T16:32:39.228Z,49.47
2023-12-10T16:35:05.664Z,50.14
2023-12-10T16:37:32.168Z,49.85
2023-12-10T16:39:58.606Z,49.40
2023-12-10T16:42:24.957Z,48.61
2023-12-10T16:44:51.300Z,48.16
2023-12-10T16:47:17.771Z,47.65
2023-12-10T16:49:45.634Z,47.57
2023-12-10T16:52:13.148Z,47.85
2023-12-10T16:54:39.569Z,48.58
2023-12-10T16:57:05.930Z,48.09
2023-12-10T16:59:32.304Z,48.22
2023-12-10T17:01:58.621Z,47.16
2023-12-10T17:04:25.116Z,47.92
2023-12-10T17:06:51.515Z,48.14
2023-12-10T17:09:17.854Z,47.37
2023-12-10T17:11:44.209Z,48.22
2023-12-10T17:14:10.544Z,48.10
2023-12-10T17:16:36.856Z,47.52
2023-12-10T17:19:03.407Z,48.84
2023-12-10T17:21:29.913Z,47.93
2023-12-10T17:23:56.244Z,48.08
2023-12-10T17:26:22.562Z,47.07
2023-12-10T17:28:48.918Z,47.83
2023-12-10T17:31:15.258Z,49.71
2023-12-10T17:33:41.742Z,49.36
2023-12-10T17:36:08.112Z,49.17
2023-12-10T17:38:34.427Z,49.18
2023-12-10T17:41:00.913Z,50.14
2023-12-10T17:43:27.254Z,49.93
2023-12-10T17:45:53.605Z,48.97
2023-12-10T17:48:20.004Z,49.03
2023-12-10T17:50:46.423Z,48.56
2023-12-10T17:53:12.863Z,48.36
2023-12-10T17:55:39.199Z,48.38
2023-12-10T17:58:05.553Z,48.68
2023-12-10T18:00:31.940Z,48.50
2023-12-10T18:02:58.285Z,48.29
2023-12-10T18:05:24.775Z,48.89
2023-12-10T18:07:51.116Z,48.11
2023-12-10T18:10:17.466Z,49.65
2023-12-10T18:12:43.810Z,49.73
2023-12-10T18:15:10.161Z,50.08
2023-12-10T18:17:36.742Z,50.55
2023-12-10T18:20:03.269Z,50.32
2023-12-10T18:22:29.657Z,51.02
2023-12-10T18:24:56.044Z,50.03
2023-12-10T18:27:22.427Z,49.71
2023-12-10T18:29:48.786Z,49.30
2023-12-10T18:32:15.109Z,49.66
2023-12-10T18:34:41.454Z,50.07
2023-12-10T18:37:07.860Z,50.38
2023-12-10T18:39:34.249Z,50.08
2023-12-10T18:42:00.594Z,50.25
2023-12-10T18:44:26.920Z,50.87
2023-12-10T18:46:53.271Z,50.71
2023-12-10T18:49:19.681Z,51.16
2023-12-10T18:51:46.104Z,51.26
2023-12-10T18:54:12.437Z,50.77
2023-12-10T18:56:38.749Z,50.47
2023-12-10T18:59:05.147Z,49.52
2023-12-10T19:01:31.561Z,49.55
2023-12-10T19:03:57.949Z,49.27
2023-12-10T19:06:24.317Z,49.03
2023-12-10T19:08:50.657Z,48.81
2023-12-10T19:11:17.131Z,48.53
2023-12-10T19:13:43.475Z,47.71
2023-12-10T19:16:09.864Z,48.11
2023-12-10T19:18:36.331Z,47.47
2023-12-10T19:21:02.741Z,47.05
2023-12-10T19:23:29.209Z,46.54
2023-12-10T19:25:55.518Z,46.78
2023-12-10T19:28:21.894Z,46.90
2023-12-10T19:30:48.360Z,46.99
2023-12-10T19:33:14.734Z,48.00
2023-12-10T19:35:41.137Z,48.99
2023-12-10T19:38:07.455Z,49.42
2023-12-10T19:40:33.769Z,49.55
2023-12-10T19:43:00.093Z,49.16
2023-12-10T19:45:26.494Z,50.95
2023-12-10T19:47:52.976Z,52.13
2023-12-10T19:50:19.357Z,52.27
2023-12-10T19:52:45.690Z,53.85
2023-12-10T19:55:12.008Z,53.51
2023-12-10T19:57:38.348Z,51.93
2023-12-10T20:00:04.713Z,51.55
2023-12-10T20:02:31.228Z,52.32
2023-12-10T20:04:57.710Z,51.84
2023-12-10T20:07:24.136Z,52.53
2023-12-10T20:09:50.488Z,51.74
2023-12-10T20:12:16.819Z,50.93
2023-12-10T20:14:43.144Z,50.63
2023-12-10T20:17:09.465Z,50.40
2023-12-10T20:19:35.967Z,50.54
2023-12-10T20:22:02.406Z,50.57
2023-12-10T20:24:34.776Z,49.55
2023-12-10T20:27:03.166Z,49.30
2023-12-10T20:29:29.571Z,48.93
2023-12-10T20:31:55.936Z,49.06
2023-12-10T20:34:29.776Z,48.46
2023-12-10T20:36:59.485Z,48.78
2023-12-10T20:39:25.895Z,48.87
2023-12-10T20:41:52.244Z,49.80
2023-12-10T20:44:18.625Z,50.94
2023-12-10T20:46:45.014Z,50.24
2023-12-10T20:49:11.452Z,50.72
2023-12-10T20:51:37.834Z,51.17
2023-12-10T20:54:04.169Z,51.18
2023-12-10T20:56:30.497Z,51.28
2023-12-10T20:58:56.842Z,50.23
2023-12-10T21:01:23.313Z,51.10
2023-12-10T21:03:49.742Z,50.53
2023-12-10T21:06:16.184Z,50.01
2023-12-10T21:08:42.564Z,51.04
2023-12-10T21:11:08.914Z,50.76
2023-12-10T21:13:35.242Z,50.76
2023-12-10T21:16:01.564Z,51.61
2023-12-10T21:18:28.106Z,52.46
2023-12-10T21:20:54.507Z,51.39
2023-12-10T21:23:20.867Z,51.49
2023-12-10T21:25:47.167Z,51.96
2023-12-10T21:28:13.527Z,51.98
2023-12-10T21:30:39.891Z,51.96
2023-12-10T21:33:06.290Z,51.73
2023-12-10T21:35:32.640Z,52.36
2023-12-10T21:37:58.951Z,51.98
2023-12-10T21:40:25.280Z,53.70
2023-12-10T21:42:51.609Z,53.08
2023-12-10T21:45:17.922Z,53.19
2023-12-10T21:47:44.310Z,53.91
2023-12-10T21:50:10.683Z,54.10
2023-12-10T21:52:37.095Z,54.34
2023-12-10T21:55:03.515Z,54.57
2023-12-10T21:57:30.097Z,55.01
2023-12-10T21:59:56.641Z,54.23
2023-12-10T22:02:22.935Z,55.68
2023-12-10T22:04:49.403Z,55.96
2023-12-10T22:07:16.115Z,55.06
2023-12-10T22:09:42.677Z,55.03
2023-12-10T22:12:09.222Z,54.24
2023-12-10T22:14:35.569Z,56.02
2023-12-10T22:17:01.992Z,57.18
2023-12-10T22:19:28.563Z,56.68
2023-12-10T22:21:55.311Z,56.17
2023-12-10T22:24:21.920Z,57.23
2023-12-10T22:26:48.504Z,57.95
2023-12-10T22:29:15.238Z,58.34
2023-12-10T22:31:41.839Z,59.91
2023-12-10T22:34:08.561Z,60.77
2023-12-10T22:36:35.469Z,62.41
2023-12-10T22:39:01.999Z,62.60
2023-12-10T22:41:28.650Z,63.53
2023-12-10T22:43:55.216Z,63.97
2023-12-10T22:46:21.610Z,63.78
2023-12-10T22:48:48.144Z,64.79
2023-12-10T22:51:14.598Z,64.44
2023-12-10T22:53:41.004Z,64.45
2023-12-10T22:56:07.362Z,65.27
2023-12-10T22:58:33.804Z,65.03
2023-12-10T23:01:00.268Z,67.40
2023-12-10T23:03:26.723Z,65.81
2023-12-10T23:05:53.182Z,63.88
2023-12-10T23:08:19.553Z,64.17
2023-12-10T23:10:45.892Z,65.15
2023-12-10T23:13:12.334Z,67.47
2023-12-10T23:15:38.686Z,68.21
2023-12-10T23:18:05.289Z,66.59
2023-12-10T23:20:31.804Z,67.60
2023-12-10T23:22:58.149Z,67.38
2023-12-10T23:25:24.536Z,66.25
2023-12-10T23:27:50.970Z,65.74
2023-12-10T23:30:20.406Z,65.93
2023-12-10T23:32:51.204Z,66.36
2023-12-10T23:35:17.709Z,66.47
2023-12-10T23:37:44.032Z,66.86
2023-12-10T23:40:10.398Z,64.95
2023-12-10T23:42:36.875Z,64.63
2023-12-10T23:45:03.192Z,64.58
2023-12-10T23:47:29.747Z,65.16
2023-12-10T23:49:56.394Z,64.13
2023-12-10T23:52:22.729Z,64.83
2023-12-10T23:54:49.073Z,63.81
2023-12-10T23:57:15.404Z,65.13
2023-12-10T23:59:41.816Z,64.86
